createdAt,value
2024-04-18T00:00:32.328Z,70.3844
2024-04-18T00:01:36.037Z,70.4109
2024-04-18T00:02:39.786Z,70.4106
2024-04-18T00:03:43.568Z,70.4101
2024-04-18T00:04:47.334Z,70.4095
2024-04-18T00:05:50.887Z,70.4088
2024-04-18T00:06:54.486Z,70.4353
2024-04-18T00:07:58.039Z,70.4347
2024-04-18T00:09:01.589Z,70.4406
2024-04-18T00:10:05.126Z,70.4399
2024-04-18T00:11:09.757Z,70.4463
2024-04-18T00:12:13.387Z,70.4525
2024-04-18T00:13:16.951Z,70.4453
2024-04-18T00:14:20.634Z,70.4585
2024-04-18T00:15:24.199Z,70.4650
2024-04-18T00:16:27.936Z,70.4513
2024-04-18T00:17:31.830Z,70.4377
2024-04-18T00:18:35.506Z,70.4443
2024-04-18T00:19:39.194Z,70.4579
2024-04-18T00:20:42.882Z,70.4510
2024-04-18T00:21:46.756Z,70.4374
2024-04-18T00:22:50.353Z,70.4375
2024-04-18T00:23:53.982Z,70.4307
2024-04-18T00:24:57.667Z,70.4240
2024-04-18T00:26:01.290Z,70.4310
2024-04-18T00:27:05.003Z,70.4310
2024-04-18T00:28:09.194Z,70.4313
2024-04-18T00:29:12.878Z,70.4316
2024-04-18T00:30:16.565Z,70.4523
2024-04-18T00:31:20.723Z,70.4257
2024-04-18T00:32:24.401Z,70.4467
2024-04-18T00:33:28.110Z,70.4203
2024-04-18T00:34:31.751Z,70.4207
2024-04-18T00:35:35.282Z,70.3940
2024-04-18T00:36:39.159Z,70.4145
2024-04-18T00:37:42.761Z,70.3806
2024-04-18T00:38:46.259Z,70.3737
2024-04-18T00:39:49.848Z,70.3739
2024-04-18T00:40:53.335Z,70.3738
2024-04-18T00:41:56.867Z,70.3870
2024-04-18T00:43:00.546Z,70.4000
2024-04-18T00:44:04.458Z,70.4130
2024-04-18T00:45:08.310Z,70.4260
2024-04-18T00:46:12.096Z,70.4393
2024-04-18T00:47:15.747Z,70.4390
2024-04-18T00:48:19.496Z,70.4452
2024-04-18T00:49:23.329Z,70.4378
2024-04-18T00:50:27.065Z,70.4304
2024-04-18T00:51:30.761Z,70.4298
2024-04-18T00:52:34.494Z,70.4223
2024-04-18T00:53:38.128Z,70.4351
2024-04-18T00:54:41.785Z,70.4414
2024-04-18T00:55:45.401Z,70.4209
2024-04-18T00:56:49.207Z,70.4138
2024-04-18T00:57:52.862Z,70.4132
2024-04-18T00:58:56.423Z,70.4199
2024-04-18T01:00:00.096Z,70.4201
2024-04-18T01:01:03.907Z,70.4200
2024-04-18T01:02:07.811Z,70.4200
2024-04-18T01:03:11.355Z,70.4133
2024-04-18T01:04:15.140Z,70.4202
2024-04-18T01:05:18.877Z,70.4201
2024-04-18T01:06:22.464Z,70.4201
2024-04-18T01:07:26.084Z,70.4132
2024-04-18T01:08:29.599Z,70.4403
2024-04-18T01:09:33.231Z,70.4268
2024-04-18T01:10:36.853Z,70.4339
2024-04-18T01:11:40.561Z,70.4408
2024-04-18T01:12:44.267Z,70.4478
2024-04-18T01:13:47.999Z,70.4617
2024-04-18T01:14:51.639Z,70.4617
2024-04-18T01:15:55.285Z,70.4551
2024-04-18T01:16:58.986Z,70.4692
2024-04-18T01:18:02.882Z,70.4766
2024-04-18T01:19:06.523Z,70.4839
2024-04-18T01:20:10.274Z,70.4846
2024-04-18T01:21:13.881Z,70.5057
2024-04-18T01:22:17.568Z,70.4996
2024-04-18T01:23:21.227Z,70.5071
2024-04-18T01:24:24.909Z,70.4941
2024-04-18T01:25:31.181Z,70.4881
2024-04-18T01:26:34.825Z,70.4956
2024-04-18T01:27:38.442Z,70.5165
2024-04-18T01:28:42.002Z,70.5169
2024-04-18T01:29:45.813Z,70.5108
2024-04-18T01:30:49.656Z,70.5184
2024-04-18T01:31:54.088Z,70.5329
2024-04-18T01:32:57.691Z,70.5201
2024-04-18T01:34:01.514Z,70.5140
2024-04-18T01:35:05.197Z,70.5284
2024-04-18T01:36:08.812Z,70.5294
2024-04-18T01:37:12.414Z,70.5166
2024-04-18T01:38:16.146Z,70.5173
2024-04-18T01:39:20.678Z,70.5247
2024-04-18T01:40:24.388Z,70.5253
2024-04-18T01:41:28.042Z,70.5122
2024-04-18T01:42:31.697Z,70.5195
2024-04-18T01:43:35.295Z,70.5269
2024-04-18T01:44:38.946Z,70.5206
2024-04-18T01:45:42.671Z,70.5143
2024-04-18T01:46:46.384Z,70.5012
2024-04-18T01:47:50.150Z,70.4879
2024-04-18T01:48:53.883Z,70.5087
2024-04-18T01:49:58.169Z,70.5017
2024-04-18T01:51:01.869Z,70.5223
2024-04-18T01:52:05.480Z,70.5227
2024-04-18T01:53:09.222Z,70.5498
2024-04-18T01:54:12.834Z,70.5362
2024-04-18T01:55:16.363Z,70.5634
2024-04-18T01:56:19.916Z,70.5770
2024-04-18T01:57:23.506Z,70.5838
2024-04-18T01:58:27.158Z,70.5908
2024-04-18T01:59:30.845Z,70.5907
2024-04-18T02:00:34.665Z,70.6114
2024-04-18T02:01:38.394Z,70.5981
2024-04-18T02:02:41.985Z,70.6051
2024-04-18T02:03:45.793Z,70.6051
2024-04-18T02:04:49.584Z,70.6047
2024-04-18T02:05:53.188Z,70.5906
2024-04-18T02:06:56.810Z,70.6240
2024-04-18T02:08:00.490Z,70.6303
2024-04-18T02:09:04.191Z,70.6300
2024-04-18T02:10:07.809Z,70.6431
2024-04-18T02:11:11.513Z,70.6426
2024-04-18T02:12:15.272Z,70.6560
2024-04-18T02:13:18.972Z,70.6696
2024-04-18T02:14:22.758Z,70.6829
2024-04-18T02:15:26.423Z,70.6895
2024-04-18T02:16:30.133Z,70.6963
2024-04-18T02:17:34.742Z,70.7159
2024-04-18T02:18:40.268Z,70.7221
2024-04-18T02:19:43.920Z,70.7282
2024-04-18T02:20:47.512Z,70.7341
2024-04-18T02:21:51.109Z,70.7399
2024-04-18T02:22:54.670Z,70.7525
2024-04-18T02:23:58.225Z,70.7516
2024-04-18T02:25:01.802Z,70.7848
2024-04-18T02:26:05.338Z,70.7770
2024-04-18T02:27:08.942Z,70.7963
2024-04-18T02:28:12.491Z,70.8092
2024-04-18T02:29:16.127Z,70.8086
2024-04-18T02:30:20.863Z,70.8085
2024-04-18T02:31:25.707Z,70.8149
2024-04-18T02:32:29.457Z,70.8007
2024-04-18T02:33:33.298Z,70.8062
2024-04-18T02:34:36.952Z,70.8253
2024-04-18T02:35:40.618Z,70.8373
2024-04-18T02:36:44.385Z,70.8561
2024-04-18T02:37:48.177Z,70.8747
2024-04-18T02:38:54.706Z,70.8868
2024-04-18T02:39:58.437Z,70.9125
2024-04-18T02:41:02.149Z,70.9314
2024-04-18T02:42:05.820Z,70.9439
2024-04-18T02:43:09.518Z,70.9634
2024-04-18T02:44:13.221Z,70.9696
2024-04-18T02:45:16.818Z,70.9827
2024-04-18T02:46:21.099Z,70.9889
2024-04-18T02:47:24.702Z,70.9814
2024-04-18T02:48:28.445Z,70.9942
2024-04-18T02:49:32.151Z,71.0069
2024-04-18T02:50:35.719Z,71.0130
2024-04-18T02:51:39.265Z,71.0324
2024-04-18T02:52:42.850Z,71.0454
2024-04-18T02:53:46.398Z,71.0380
2024-04-18T02:54:50.107Z,71.0584
2024-04-18T02:55:53.723Z,71.0719
2024-04-18T02:56:57.306Z,71.0786
2024-04-18T02:58:01.021Z,71.1058
2024-04-18T02:59:04.650Z,71.1122
2024-04-18T03:00:09.803Z,71.1118
2024-04-18T03:01:13.474Z,71.1251
2024-04-18T03:02:17.230Z,71.1249
2024-04-18T03:03:20.857Z,71.1445
2024-04-18T03:04:24.543Z,71.1441
2024-04-18T03:05:28.191Z,71.1504
2024-04-18T03:06:31.864Z,71.1433
2024-04-18T03:07:35.495Z,71.1568
2024-04-18T03:08:39.756Z,71.1641
2024-04-18T03:09:43.543Z,71.1644
2024-04-18T03:10:47.222Z,71.1580
2024-04-18T03:11:50.760Z,71.1578
2024-04-18T03:12:57.115Z,71.1643
2024-04-18T03:14:00.645Z,71.1571
2024-04-18T03:15:04.442Z,71.1570
2024-04-18T03:16:08.041Z,71.1573
2024-04-18T03:17:11.760Z,71.1568
2024-04-18T03:18:15.626Z,71.1495
2024-04-18T03:19:19.576Z,71.1625
2024-04-18T03:20:25.289Z,71.1753
2024-04-18T03:21:28.993Z,71.1812
2024-04-18T03:22:32.581Z,71.1939
2024-04-18T03:23:36.118Z,71.2062
2024-04-18T03:24:39.686Z,71.2386
2024-04-18T03:25:43.685Z,71.2775
2024-04-18T03:26:48.147Z,71.3230
2024-04-18T03:27:52.780Z,71.3413
2024-04-18T03:28:56.452Z,71.3664
2024-04-18T03:30:00.103Z,71.3979
2024-04-18T03:31:04.827Z,71.4295
2024-04-18T03:32:09.258Z,71.4612
2024-04-18T03:33:13.816Z,71.4522
2024-04-18T03:34:17.556Z,71.4508
2024-04-18T03:35:21.288Z,71.4423
2024-04-18T03:36:24.882Z,71.4672
2024-04-18T03:37:28.407Z,71.4586
2024-04-18T03:38:32.000Z,71.4770
2024-04-18T03:39:35.665Z,71.4817
2024-04-18T03:40:39.666Z,71.4796
2024-04-18T03:41:44.209Z,71.4909
2024-04-18T03:42:47.930Z,71.4820
2024-04-18T03:43:53.583Z,71.4937
2024-04-18T03:44:58.303Z,71.4922
2024-04-18T03:46:02.029Z,71.4905
2024-04-18T03:47:05.713Z,71.4752
2024-04-18T03:48:09.373Z,71.4873
2024-04-18T03:49:13.131Z,71.4926
2024-04-18T03:50:16.646Z,71.5180
2024-04-18T03:51:20.283Z,71.5300
2024-04-18T03:52:24.659Z,71.5357
2024-04-18T03:53:28.247Z,71.5415
2024-04-18T03:54:39.843Z,71.5407
2024-04-18T03:55:42.432Z,71.5740
2024-04-18T03:56:46.099Z,71.5529
2024-04-18T03:57:49.770Z,71.5453
2024-04-18T03:58:53.433Z,71.5515
2024-04-18T03:59:56.966Z,71.5376
2024-04-18T04:01:00.817Z,71.5305
2024-04-18T04:02:04.538Z,71.5439
2024-04-18T04:03:08.125Z,71.5305
2024-04-18T04:04:11.877Z,71.5448
2024-04-18T04:05:15.597Z,71.5318
2024-04-18T04:06:19.329Z,71.5322
2024-04-18T04:07:22.966Z,71.5390
2024-04-18T04:08:26.667Z,71.5184
2024-04-18T04:09:30.454Z,71.5249
2024-04-18T04:10:34.044Z,71.5450
2024-04-18T04:11:37.747Z,71.5245
2024-04-18T04:12:41.491Z,71.5378
2024-04-18T04:13:45.083Z,71.5372
2024-04-18T04:14:48.801Z,71.5500
2024-04-18T04:15:52.703Z,71.5287
2024-04-18T04:16:56.439Z,71.5484
2024-04-18T04:18:00.093Z,71.5545
2024-04-18T04:19:03.775Z,71.5741
2024-04-18T04:20:07.504Z,71.6010
2024-04-18T04:21:11.201Z,71.6009
2024-04-18T04:22:15.808Z,71.6079
2024-04-18T04:23:19.423Z,71.6081
2024-04-18T04:24:23.114Z,71.6014
2024-04-18T04:25:26.764Z,71.5943
2024-04-18T04:26:30.551Z,71.5934
2024-04-18T04:27:34.159Z,71.5989
2024-04-18T04:28:37.808Z,71.6110
2024-04-18T04:29:41.393Z,71.6096
2024-04-18T04:30:45.106Z,71.6429
2024-04-18T04:31:48.938Z,71.6562
2024-04-18T04:32:52.664Z,71.6697
2024-04-18T04:33:57.345Z,71.7039
2024-04-18T04:35:00.971Z,71.7042
2024-04-18T04:36:04.613Z,71.6978
2024-04-18T04:37:08.267Z,71.7049
2024-04-18T04:38:11.923Z,71.7047
2024-04-18T04:39:15.655Z,71.6903
2024-04-18T04:40:19.484Z,71.7025
2024-04-18T04:41:23.053Z,71.7418
2024-04-18T04:42:26.777Z,71.7603
2024-04-18T04:43:30.373Z,71.7923
2024-04-18T04:44:34.096Z,71.8240
2024-04-18T04:45:37.840Z,71.8488
2024-04-18T04:46:41.497Z,71.8803
2024-04-18T04:47:45.182Z,71.8918
2024-04-18T04:48:48.825Z,71.9168
2024-04-18T04:49:52.424Z,71.9350
2024-04-18T04:50:56.049Z,71.9531
2024-04-18T04:51:59.640Z,71.9780
2024-04-18T04:53:03.752Z,71.9754
2024-04-18T04:54:07.506Z,71.9930
2024-04-18T04:55:11.129Z,72.0310
2024-04-18T04:56:14.719Z,72.0620
2024-04-18T04:57:18.344Z,72.0933
2024-04-18T04:58:21.947Z,72.1110
2024-04-18T04:59:25.465Z,72.1221
2024-04-18T05:00:29.173Z,72.1333
2024-04-18T05:01:32.932Z,72.1377
2024-04-18T05:02:39.191Z,72.1625
2024-04-18T05:03:43.811Z,72.1665
2024-04-18T05:04:47.626Z,72.1838
2024-04-18T05:05:51.258Z,72.1875
2024-04-18T05:06:55.016Z,72.1981
2024-04-18T05:07:58.699Z,72.2295
2024-04-18T05:09:02.415Z,72.2409
2024-04-18T05:10:06.120Z,72.2525
2024-04-18T05:11:09.840Z,72.2368
2024-04-18T05:12:13.525Z,72.2074
2024-04-18T05:13:17.218Z,72.1912
2024-04-18T05:14:20.966Z,72.1812
2024-04-18T05:15:25.208Z,72.1847
2024-04-18T05:16:28.846Z,72.1606
2024-04-18T05:17:32.349Z,72.1699
2024-04-18T05:18:35.978Z,72.1724
2024-04-18T05:19:39.681Z,72.1751
2024-04-18T05:20:43.310Z,72.1779
2024-04-18T05:21:47.013Z,72.1942
2024-04-18T05:22:50.708Z,72.2041
2024-04-18T05:23:54.223Z,72.1931
2024-04-18T05:24:57.930Z,72.2167
2024-04-18T05:26:02.348Z,72.2265
2024-04-18T05:27:06.004Z,72.2367
2024-04-18T05:28:09.699Z,72.2607
2024-04-18T05:29:13.415Z,72.2714
2024-04-18T05:30:17.110Z,72.2822
2024-04-18T05:31:21.252Z,72.2935
2024-04-18T05:32:25.077Z,72.2916
2024-04-18T05:33:28.738Z,72.2965
2024-04-18T05:34:32.743Z,72.2948
2024-04-18T05:35:36.429Z,72.2796
2024-04-18T05:36:40.205Z,72.2782
2024-04-18T05:37:43.837Z,72.2838
2024-04-18T05:38:47.520Z,72.2687
2024-04-18T05:39:51.306Z,72.2605
2024-04-18T05:40:55.189Z,72.2662
2024-04-18T05:41:58.846Z,72.2576
2024-04-18T05:43:02.503Z,72.2625
2024-04-18T05:44:06.192Z,72.2808
2024-04-18T05:45:13.158Z,72.2713
2024-04-18T05:46:16.721Z,72.2890
2024-04-18T05:47:20.483Z,72.3000
2024-04-18T05:48:24.208Z,72.3248
2024-04-18T05:49:27.818Z,72.3292
2024-04-18T05:50:31.713Z,72.3474
2024-04-18T05:51:35.395Z,72.3654
2024-04-18T05:52:39.090Z,72.3835
2024-04-18T05:53:43.296Z,72.4220
2024-04-18T05:54:47.119Z,72.4337
2024-04-18T05:55:50.811Z,72.4385
2024-04-18T05:56:54.489Z,72.4571
2024-04-18T05:57:58.244Z,72.4624
2024-04-18T05:59:01.980Z,72.4540
2024-04-18T06:00:05.645Z,72.4798
2024-04-18T06:01:10.439Z,72.4715
2024-04-18T06:02:14.124Z,72.4905
2024-04-18T06:03:17.859Z,72.4959
2024-04-18T06:04:21.539Z,72.5079
2024-04-18T06:05:25.166Z,72.4995
2024-04-18T06:06:28.978Z,72.5184
2024-04-18T06:07:32.614Z,72.5238
2024-04-18T06:08:36.325Z,72.5292
2024-04-18T06:09:42.851Z,72.5486
2024-04-18T06:10:46.530Z,72.5338
2024-04-18T06:11:50.111Z,72.5399
2024-04-18T06:12:53.780Z,72.5114
2024-04-18T06:13:57.395Z,72.5036
2024-04-18T06:15:01.075Z,72.5166
2024-04-18T06:16:04.902Z,72.4953
2024-04-18T06:17:08.523Z,72.4879
2024-04-18T06:18:12.107Z,72.4943
2024-04-18T06:19:15.669Z,72.4870
2024-04-18T06:20:19.352Z,72.4935
2024-04-18T06:21:22.970Z,72.4794
2024-04-18T06:22:26.633Z,72.4723
2024-04-18T06:23:30.286Z,72.4654
2024-04-18T06:24:34.133Z,72.4584
2024-04-18T06:25:37.880Z,72.4442
2024-04-18T06:26:41.527Z,72.4301
2024-04-18T06:27:45.321Z,72.4296
2024-04-18T06:28:48.976Z,72.4291
2024-04-18T06:29:52.672Z,72.4218
2024-04-18T06:30:56.391Z,72.4081
2024-04-18T06:32:00.257Z,72.4079
2024-04-18T06:33:04.051Z,72.4011
2024-04-18T06:34:07.977Z,72.3874
2024-04-18T06:35:11.659Z,72.3807
2024-04-18T06:36:15.439Z,72.3738
2024-04-18T06:37:19.038Z,72.3669
2024-04-18T06:38:22.610Z,72.3870
2024-04-18T06:39:27.193Z,72.3864
2024-04-18T06:40:30.834Z,72.3994
2024-04-18T06:41:34.471Z,72.3989
2024-04-18T06:42:38.068Z,72.3916
2024-04-18T06:43:41.830Z,72.3912
2024-04-18T06:44:45.649Z,72.3910
2024-04-18T06:45:49.341Z,72.3840
2024-04-18T06:47:00.385Z,72.3909
2024-04-18T06:48:02.929Z,72.3703
2024-04-18T06:49:06.690Z,72.3974
2024-04-18T06:50:10.317Z,72.3903
2024-04-18T06:51:14.728Z,72.3833
2024-04-18T06:52:18.867Z,72.3902
2024-04-18T06:53:22.507Z,72.3904
2024-04-18T06:54:26.188Z,72.3768
2024-04-18T06:55:29.831Z,72.3905
2024-04-18T06:56:33.485Z,72.3768
2024-04-18T06:57:37.305Z,72.3832
2024-04-18T06:58:42.039Z,72.3694
2024-04-18T06:59:46.233Z,72.3896
2024-04-18T07:00:50.070Z,72.3821
2024-04-18T07:01:53.660Z,72.4090
2024-04-18T07:02:57.276Z,72.4151
2024-04-18T07:04:00.980Z,72.4006
2024-04-18T07:05:04.759Z,72.4338
2024-04-18T07:06:08.472Z,72.4329
2024-04-18T07:07:12.188Z,72.4321
2024-04-18T07:08:15.871Z,72.4380
2024-04-18T07:09:19.527Z,72.4778
2024-04-18T07:10:23.228Z,72.4628
2024-04-18T07:11:26.941Z,72.4889
2024-04-18T07:12:30.872Z,72.5078
2024-04-18T07:13:35.124Z,72.5266
2024-04-18T07:14:39.821Z,72.5662
2024-04-18T07:15:43.564Z,72.5857
2024-04-18T07:16:47.696Z,72.5988
2024-04-18T07:17:51.321Z,72.5918
2024-04-18T07:18:55.368Z,72.5919
2024-04-18T07:19:59.098Z,72.5921
2024-04-18T07:21:02.643Z,72.5858
2024-04-18T07:22:06.290Z,72.6004
2024-04-18T07:23:09.871Z,72.5807
2024-04-18T07:24:13.560Z,72.5678
2024-04-18T07:25:17.211Z,72.5617
2024-04-18T07:26:20.947Z,72.5419
2024-04-18T07:27:24.751Z,72.5152
2024-04-18T07:28:28.877Z,72.5084
2024-04-18T07:29:32.511Z,72.5083
2024-04-18T07:30:36.667Z,72.5083
2024-04-18T07:31:40.260Z,72.4946
2024-04-18T07:32:45.883Z,72.4949
2024-04-18T07:33:49.678Z,72.4887
2024-04-18T07:34:53.441Z,72.4895
2024-04-18T07:35:57.274Z,72.4701
2024-04-18T07:37:00.951Z,72.4575
2024-04-18T07:38:04.584Z,72.4583
2024-04-18T07:39:08.257Z,72.4318
2024-04-18T07:40:12.800Z,72.4392
2024-04-18T07:41:16.445Z,72.4326
2024-04-18T07:42:20.162Z,72.4258
2024-04-18T07:43:23.937Z,72.4324
2024-04-18T07:44:27.634Z,72.4250
2024-04-18T07:45:31.317Z,72.4379
2024-04-18T07:46:34.979Z,72.4645
2024-04-18T07:47:38.724Z,72.4502
2024-04-18T07:48:42.534Z,72.4698
2024-04-18T07:49:49.005Z,72.4760
2024-04-18T07:50:54.181Z,72.5164
2024-04-18T07:51:57.874Z,72.5157
2024-04-18T07:53:09.224Z,72.5362
2024-04-18T07:54:10.952Z,72.5636
2024-04-18T07:55:15.206Z,72.5567
2024-04-18T07:56:19.163Z,72.5636
2024-04-18T07:57:24.315Z,72.5773
2024-04-18T07:58:28.751Z,72.5708
2024-04-18T07:59:33.255Z,72.5984
2024-04-18T08:00:38.210Z,72.5919
2024-04-18T08:01:43.929Z,72.5922
2024-04-18T08:02:50.983Z,72.5925
2024-04-18T08:04:08.059Z,72.5522
2024-04-18T08:05:07.272Z,72.5596
2024-04-18T08:06:14.214Z,72.5464
2024-04-18T08:07:22.323Z,72.5123
2024-04-18T08:08:30.867Z,72.5261
2024-04-18T08:09:40.170Z,72.5404
2024-04-18T08:11:01.019Z,72.5272
2024-04-18T08:12:22.573Z,72.5275
2024-04-18T08:13:08.170Z,72.5412
2024-04-18T08:14:17.301Z,72.5210
2024-04-18T08:16:34.258Z,72.5551
2024-04-18T08:17:38.093Z,72.5761
2024-04-18T08:18:41.856Z,72.5632
2024-04-18T08:19:45.531Z,72.5640
2024-04-18T08:20:49.243Z,72.5717
2024-04-18T08:21:52.824Z,72.5726
2024-04-18T08:22:56.459Z,72.5667
2024-04-18T08:24:00.227Z,72.5744
2024-04-18T08:25:03.922Z,72.5825
2024-04-18T08:26:07.488Z,72.5770
2024-04-18T08:27:11.204Z,72.5713
2024-04-18T08:28:14.868Z,72.5657
2024-04-18T08:29:18.444Z,72.5465
2024-04-18T08:30:22.165Z,72.5405
2024-04-18T08:31:25.839Z,72.5279
2024-04-18T08:32:29.659Z,72.5424
2024-04-18T08:33:33.342Z,72.5157
2024-04-18T08:34:39.381Z,72.5364
2024-04-18T08:35:44.946Z,72.5227
2024-04-18T08:36:48.701Z,72.5293
2024-04-18T08:37:52.404Z,72.5357
2024-04-18T08:38:55.980Z,72.5630
2024-04-18T08:39:59.643Z,72.5631
2024-04-18T08:41:03.194Z,72.5974
2024-04-18T08:42:07.734Z,72.5979
2024-04-18T08:43:11.926Z,72.5988
2024-04-18T08:44:15.507Z,72.6133
2024-04-18T08:45:19.201Z,72.6077
2024-04-18T08:46:22.910Z,72.6160
2024-04-18T08:47:26.680Z,72.6245
2024-04-18T08:48:30.684Z,72.6056
2024-04-18T08:49:34.445Z,72.6007
2024-04-18T08:50:38.438Z,72.5957
2024-04-18T08:51:42.166Z,72.5836
2024-04-18T08:52:45.839Z,72.5784
2024-04-18T08:53:49.594Z,72.6070
2024-04-18T08:54:53.342Z,72.6083
2024-04-18T08:55:57.116Z,72.5955
2024-04-18T08:57:00.809Z,72.5829
2024-04-18T08:58:05.424Z,72.5700
2024-04-18T08:59:09.772Z,72.5984
2024-04-18T09:00:14.373Z,72.6136
2024-04-18T09:01:18.924Z,72.6428
2024-04-18T09:02:22.638Z,72.6518
2024-04-18T09:03:26.270Z,72.6541
2024-04-18T09:04:29.918Z,72.6361
2024-04-18T09:05:34.330Z,72.6315
2024-04-18T09:06:39.014Z,72.6198
2024-04-18T09:07:42.598Z,72.6144
2024-04-18T09:08:46.194Z,72.6359
2024-04-18T09:09:49.776Z,72.6506
2024-04-18T09:10:53.857Z,72.6723
2024-04-18T09:11:57.560Z,72.6810
2024-04-18T09:13:04.275Z,72.6570
2024-04-18T09:14:10.819Z,72.6278
2024-04-18T09:15:29.357Z,72.5379
2024-04-18T09:16:33.182Z,72.4354
2024-04-18T09:17:36.970Z,72.3531
2024-04-18T09:18:41.574Z,72.2773
2024-04-18T09:19:45.264Z,72.2420
2024-04-18T09:20:48.995Z,72.1930
2024-04-18T09:21:52.573Z,72.1506
2024-04-18T09:22:56.270Z,72.0806
2024-04-18T09:23:59.887Z,72.0377
2024-04-18T09:25:03.564Z,71.9669
2024-04-18T09:26:08.757Z,71.9569
2024-04-18T09:27:13.524Z,71.9329
2024-04-18T09:28:17.220Z,71.9561
2024-04-18T09:29:20.875Z,71.9655
2024-04-18T09:30:24.642Z,71.9335
2024-04-18T09:31:35.210Z,71.9419
2024-04-18T09:32:38.028Z,71.9571
2024-04-18T09:33:42.046Z,72.0264
2024-04-18T09:34:45.926Z,72.0555
2024-04-18T09:35:49.613Z,72.0587
2024-04-18T09:36:53.968Z,72.0554
2024-04-18T09:38:04.537Z,72.0384
2024-04-18T09:39:07.145Z,72.0007
2024-04-18T09:40:10.818Z,72.0102
2024-04-18T09:41:14.455Z,72.0061
2024-04-18T09:42:18.106Z,72.0232
2024-04-18T09:43:21.832Z,72.0065
2024-04-18T09:44:30.109Z,71.9697
2024-04-18T09:45:33.877Z,71.9601
2024-04-18T09:46:37.611Z,71.9645
2024-04-18T09:47:41.291Z,71.9422
2024-04-18T09:48:45.150Z,71.9267
2024-04-18T09:49:50.975Z,71.9115
2024-04-18T09:50:55.357Z,71.8765
2024-04-18T09:51:59.424Z,71.8209
2024-04-18T09:53:03.780Z,71.8060
2024-04-18T09:54:07.505Z,71.7838
2024-04-18T09:55:12.268Z,71.7272
2024-04-18T09:56:15.944Z,71.7258
2024-04-18T09:57:19.912Z,71.6908
2024-04-18T09:58:23.660Z,71.6626
2024-04-18T09:59:27.296Z,71.6474
2024-04-18T10:00:31.232Z,71.6114
2024-04-18T10:01:34.972Z,71.5957
2024-04-18T10:02:39.223Z,71.5793
2024-04-18T10:03:42.947Z,71.5620
2024-04-18T10:04:46.685Z,71.5778
2024-04-18T10:05:51.205Z,71.6079
2024-04-18T10:06:54.924Z,71.6394
2024-04-18T10:08:01.136Z,71.5973
2024-04-18T10:09:04.983Z,71.5410
2024-04-18T10:10:08.610Z,71.5041
2024-04-18T10:11:12.297Z,71.5081
2024-04-18T10:12:16.028Z,71.4645
2024-04-18T10:13:21.315Z,71.4939
2024-04-18T10:14:26.438Z,71.5288
2024-04-18T10:15:30.187Z,71.5904
2024-04-18T10:16:33.858Z,71.6538
2024-04-18T10:17:38.051Z,71.6916
2024-04-18T10:18:41.933Z,71.6610
2024-04-18T10:19:45.876Z,71.7115
2024-04-18T10:20:50.303Z,71.7427
2024-04-18T10:22:06.358Z,71.7543
2024-04-18T10:23:09.571Z,71.6907
2024-04-18T10:24:13.458Z,71.6684
2024-04-18T10:25:17.249Z,71.6743
2024-04-18T10:26:20.935Z,71.6386
2024-04-18T10:27:24.747Z,71.6154
2024-04-18T10:28:28.386Z,71.6038
2024-04-18T10:29:32.894Z,71.6187
2024-04-18T10:30:36.636Z,71.6464
2024-04-18T10:31:40.201Z,71.6996
2024-04-18T10:32:43.862Z,71.7856
2024-04-18T10:33:47.572Z,71.8782
2024-04-18T10:34:51.164Z,71.9565
2024-04-18T10:35:54.785Z,72.0480
2024-04-18T10:36:58.372Z,72.1534
2024-04-18T10:38:01.954Z,72.2526
2024-04-18T10:39:05.705Z,72.3246
2024-04-18T10:40:09.234Z,72.4244
2024-04-18T10:41:12.825Z,72.4830
2024-04-18T10:42:16.504Z,72.5697
2024-04-18T10:43:20.883Z,72.6504
2024-04-18T10:44:24.705Z,72.6975
2024-04-18T10:45:28.474Z,72.7589
2024-04-18T10:46:32.192Z,72.7996
2024-04-18T10:47:35.994Z,72.8131
2024-04-18T10:48:39.727Z,72.8672
2024-04-18T10:49:43.406Z,72.8939
2024-04-18T10:50:46.959Z,72.9342
2024-04-18T10:51:50.691Z,72.9816
2024-04-18T10:52:54.822Z,73.0357
2024-04-18T10:53:58.502Z,73.0822
2024-04-18T10:55:02.787Z,73.1278
2024-04-18T10:56:09.333Z,73.1935
2024-04-18T10:57:13.066Z,73.2800
2024-04-18T10:58:17.834Z,73.3186
2024-04-18T10:59:21.554Z,73.3716
2024-04-18T11:00:31.989Z,73.4458
2024-04-18T11:01:36.019Z,73.5007
2024-04-18T11:02:40.209Z,73.5491
2024-04-18T11:03:44.765Z,73.5627
2024-04-18T11:04:48.332Z,73.6173
2024-04-18T11:05:51.980Z,73.6441
2024-04-18T11:06:55.735Z,73.6638
2024-04-18T11:07:59.565Z,73.7386
2024-04-18T11:09:03.257Z,73.7794
2024-04-18T11:10:06.911Z,73.8285
2024-04-18T11:11:10.483Z,73.8714
2024-04-18T11:12:14.116Z,73.8933
2024-04-18T11:13:18.423Z,73.9009
2024-04-18T11:14:22.795Z,73.9078
2024-04-18T11:15:26.527Z,73.9760
2024-04-18T11:16:30.201Z,74.0023
2024-04-18T11:17:33.933Z,74.0350
2024-04-18T11:18:37.735Z,74.0954
2024-04-18T11:19:41.505Z,74.1211
2024-04-18T11:20:45.237Z,74.1951
2024-04-18T11:21:48.910Z,74.2418
2024-04-18T11:22:57.414Z,74.2951
2024-04-18T11:24:02.256Z,74.3559
2024-04-18T11:25:06.090Z,74.4035
2024-04-18T11:26:09.691Z,74.4519
2024-04-18T11:27:13.566Z,74.4937
2024-04-18T11:28:17.259Z,74.5147
2024-04-18T11:29:21.131Z,74.5561
2024-04-18T11:30:24.681Z,74.5701
2024-04-18T11:31:28.298Z,74.5978
2024-04-18T11:32:33.496Z,74.6046
2024-04-18T11:33:37.441Z,74.6321
2024-04-18T11:34:41.054Z,74.6801
2024-04-18T11:35:44.674Z,74.7010
2024-04-18T11:36:48.319Z,74.7155
2024-04-18T11:37:52.112Z,74.7379
2024-04-18T11:38:56.886Z,74.7750
2024-04-18T11:40:01.376Z,74.7779
2024-04-18T11:41:05.099Z,74.7739
2024-04-18T11:42:08.795Z,74.7557
2024-04-18T11:43:13.332Z,74.7717
2024-04-18T11:44:17.078Z,74.7459
2024-04-18T11:45:21.071Z,74.7542
2024-04-18T11:46:24.766Z,74.7763
2024-04-18T11:47:28.591Z,74.7845
2024-04-18T11:48:32.568Z,74.7921
2024-04-18T11:49:38.220Z,74.8205
2024-04-18T11:50:42.795Z,74.8286
2024-04-18T11:51:46.590Z,74.8508
2024-04-18T11:52:50.289Z,74.8871
2024-04-18T11:53:54.062Z,74.9167
2024-04-18T11:54:58.238Z,74.9252
2024-04-18T11:56:04.272Z,74.9544
2024-04-18T11:57:08.839Z,75.0316
2024-04-18T11:58:14.446Z,75.0813
2024-04-18T11:59:18.452Z,75.1595
2024-04-18T12:00:22.151Z,75.1963
2024-04-18T12:01:25.906Z,75.2682
2024-04-18T12:02:30.321Z,75.3199
2024-04-18T12:03:34.033Z,75.3519
2024-04-18T12:04:39.218Z,75.3993
2024-04-18T12:05:44.253Z,75.4139
2024-04-18T12:06:47.942Z,75.4020
2024-04-18T12:07:51.638Z,75.3773
2024-04-18T12:08:55.974Z,75.3674
2024-04-18T12:10:00.381Z,75.3174
2024-04-18T12:11:04.194Z,75.2405
2024-04-18T12:12:07.967Z,75.1575
2024-04-18T12:13:11.770Z,75.0179
2024-04-18T12:14:15.490Z,74.8642
2024-04-18T12:15:19.300Z,74.7325
2024-04-18T12:16:23.117Z,74.6294
2024-04-18T12:17:26.886Z,74.5043
2024-04-18T12:18:30.610Z,74.4257
2024-04-18T12:19:34.144Z,74.3659
2024-04-18T12:21:07.303Z,74.0145
2024-04-18T12:22:11.055Z,74.1611
2024-04-18T12:23:14.877Z,74.0878
2024-04-18T12:24:18.555Z,73.9918
2024-04-18T12:25:22.925Z,73.8711
2024-04-18T12:26:26.496Z,73.7475
2024-04-18T12:27:30.160Z,73.6655
2024-04-18T12:28:33.749Z,73.5562
2024-04-18T12:29:37.458Z,73.4678
2024-04-18T12:30:41.056Z,73.4326
2024-04-18T12:31:44.714Z,72.9345
2024-04-18T12:32:48.403Z,72.5313
2024-04-18T12:33:52.085Z,72.2962
2024-04-18T12:34:55.634Z,71.9424
2024-04-18T12:35:59.830Z,71.5966
2024-04-18T12:37:03.367Z,71.4981
2024-04-18T12:38:06.913Z,71.5585
2024-04-18T12:39:10.522Z,71.6930
2024-04-18T12:40:14.177Z,71.8532
2024-04-18T12:41:17.782Z,71.9537
2024-04-18T12:42:21.372Z,72.0698
2024-04-18T12:43:24.993Z,72.1696
2024-04-18T12:44:30.024Z,72.2031
2024-04-18T12:45:36.471Z,72.2206
2024-04-18T12:46:40.292Z,72.1479
2024-04-18T12:47:44.449Z,71.4108
2024-04-18T12:48:48.513Z,70.3261
2024-04-18T12:49:52.671Z,68.4343
2024-04-18T12:50:57.398Z,67.5324
2024-04-18T12:52:01.099Z,67.2239
2024-04-18T12:53:04.732Z,67.3117
2024-04-18T12:54:08.437Z,67.7000
2024-04-18T12:55:13.154Z,67.2449
2024-04-18T12:56:16.798Z,66.0047